Etusivu
METAR-TAF:

METAR-TAF

Lentoasemat :

Curaçao, Alankomaiden Antillit

Leveyspiiri: 12-12N, Pituuspiiri: 068-58W, korkeus merenpinnasta: 9 m

Tämänhetkinen sää

Tämä raportti tehtiin 42 minuuttia sitten, kello 20.00 UTC
Tuuli 6 kn koillisesta
Lämpötila 31°C
Kosteus 66%
Ilmanpaine 1009 hPa
Näkyvyys 10 km tai enemmän
Muutamia pilviä 2400 ft:n korkeudessa

METAR: TNCC 192000Z 04006KT 9999 FEW024 31/24 Q1009 NOSIG

Aika: 16:42 (20:42 UTC)

Sääennuste

Tämä raportti tehtiin 4 tuntia ja 52 minuuttia sitten, kello 15.50 UTC
Ennuste voimassa 19. päivästä klo 18 UTC - 20. päivään klo 18 UTC
Tuuli 8 kn koillisesta
Näkyvyys 10 km tai enemmän
Muutamia pilviä 2400 ft:n korkeudessa
Ajoittain
20. päivästä klo 06 UTC - 20. päivään klo 18 UTC
Tuuli 3 kn eri suunnista
Hajonneita pilviä 1500 ft:n korkeudessa

TAF: TNCC 191550Z 1918/2018 05008KT 9999 FEW024 TEMPO 2006/2018 VRB03KT BKN015

Säähavainnot ja -ennusteet yli 4000 lentoasemalta (METAR- ja TAF-raportit).

Käytössä olevat sääasemat on merkitty karttaan keltaisilla ja punaisilla pisteillä.

Aseta hiiri pisteen päälle nähdäksesi sääaseman nimen.

Klikkaa sitten nähdäksesi säähavainnot ja -ennusteet.

Kartan vaihtaminen: klikkaa mustalla rastilla varustettuja vihreitä pisteitä, niin voit zoomata sisään; viivalla varustettua vihreää pistettä, niin voit zoomata ulos tai vihreitä nuolia, niin pääset viereisille kartoille.


METAR-TAF: